sensor_id;sensor_type;location;lat;lon;timestamp;temperature;humidity
70676;DHT22;59069;52.242;20.900;2024-02-14T00:00:34;5.66;77.30
70676;DHT22;59069;52.242;20.900;2024-02-14T00:03:00;5.61;77.28
70676;DHT22;59069;52.242;20.900;2024-02-14T00:05:25;5.63;77.41
70676;DHT22;59069;52.242;20.900;2024-02-14T00:07:51;5.59;77.46
70676;DHT22;59069;52.242;20.900;2024-02-14T00:10:17;5.55;77.58
70676;DHT22;59069;52.242;20.900;2024-02-14T00:12:42;5.58;77.66
70676;DHT22;59069;52.242;20.900;2024-02-14T00:15:08;5.56;77.68
70676;DHT22;59069;52.242;20.900;2024-02-14T00:17:35;5.55;77.83
70676;DHT22;59069;52.242;20.900;2024-02-14T00:20:04;5.55;77.97
70676;DHT22;59069;52.242;20.900;2024-02-14T00:22:30;5.55;78.04
70676;DHT22;59069;52.242;20.900;2024-02-14T00:24:55;5.56;78.21
70676;DHT22;59069;52.242;20.900;2024-02-14T00:27:21;5.55;78.33
70676;DHT22;59069;52.242;20.900;2024-02-14T00:29:46;5.54;78.42
70676;DHT22;59069;52.242;20.900;2024-02-14T00:32:12;5.49;78.54
70676;DHT22;59069;52.242;20.900;2024-02-14T00:34:38;5.51;78.65
70676;DHT22;59069;52.242;20.900;2024-02-14T00:37:04;5.49;78.75
70676;DHT22;59069;52.242;20.900;2024-02-14T00:39:29;5.49;78.82
70676;DHT22;59069;52.242;20.900;2024-02-14T00:41:54;5.49;78.84
70676;DHT22;59069;52.242;20.900;2024-02-14T00:44:21;5.51;78.98
70676;DHT22;59069;52.242;20.900;2024-02-14T00:46:46;5.49;79.01
70676;DHT22;59069;52.242;20.900;2024-02-14T00:49:13;5.47;79.03
70676;DHT22;59069;52.242;20.900;2024-02-14T00:51:39;5.49;79.05
70676;DHT22;59069;52.242;20.900;2024-02-14T00:54:05;5.45;79.06
70676;DHT22;59069;52.242;20.900;2024-02-14T00:56:30;5.41;79.02
70676;DHT22;59069;52.242;20.900;2024-02-14T00:58:56;5.39;79.01
70676;DHT22;59069;52.242;20.900;2024-02-14T01:01:22;5.32;78.96
70676;DHT22;59069;52.242;20.900;2024-02-14T01:03:47;5.27;79.00
70676;DHT22;59069;52.242;20.900;2024-02-14T01:06:12;5.20;79.04
70676;DHT22;59069;52.242;20.900;2024-02-14T01:08:39;5.13;79.17
70676;DHT22;59069;52.242;20.900;2024-02-14T01:11:06;5.07;79.28
70676;DHT22;59069;52.242;20.900;2024-02-14T01:13:31;5.00;79.32
70676;DHT22;59069;52.242;20.900;2024-02-14T01:15:56;4.94;79.52
70676;DHT22;59069;52.242;20.900;2024-02-14T01:18:22;4.89;79.70
70676;DHT22;59069;52.242;20.900;2024-02-14T01:20:47;4.80;79.81
70676;DHT22;59069;52.242;20.900;2024-02-14T01:23:12;4.79;79.94
70676;DHT22;59069;52.242;20.900;2024-02-14T01:25:38;4.70;80.08
70676;DHT22;59069;52.242;20.900;2024-02-14T01:28:03;4.67;80.14
70676;DHT22;59069;52.242;20.900;2024-02-14T01:30:30;4.60;80.28
70676;DHT22;59069;52.242;20.900;2024-02-14T01:32:55;4.56;80.43
70676;DHT22;59069;52.242;20.900;2024-02-14T01:35:21;4.50;80.65
70676;DHT22;59069;52.242;20.900;2024-02-14T01:37:46;4.44;80.87
70676;DHT22;59069;52.242;20.900;2024-02-14T01:40:12;4.39;81.18
70676;DHT22;59069;52.242;20.900;2024-02-14T01:42:37;4.35;81.63
70676;DHT22;59069;52.242;20.900;2024-02-14T01:45:03;4.31;81.79
70676;DHT22;59069;52.242;20.900;2024-02-14T01:47:28;4.28;81.93
70676;DHT22;59069;52.242;20.900;2024-02-14T01:49:54;4.25;82.03
70676;DHT22;59069;52.242;20.900;2024-02-14T01:52:19;4.19;82.07
70676;DHT22;59069;52.242;20.900;2024-02-14T01:54:47;4.12;82.33
70676;DHT22;59069;52.242;20.900;2024-02-14T01:57:12;4.05;82.51
70676;DHT22;59069;52.242;20.900;2024-02-14T01:59:38;4.01;82.73
70676;DHT22;59069;52.242;20.900;2024-02-14T02:02:04;3.97;82.92
70676;DHT22;59069;52.242;20.900;2024-02-14T02:04:32;3.90;83.04
70676;DHT22;59069;52.242;20.900;2024-02-14T02:06:58;3.87;83.16
70676;DHT22;59069;52.242;20.900;2024-02-14T02:09:24;3.84;83.27
70676;DHT22;59069;52.242;20.900;2024-02-14T02:11:51;3.80;83.43
70676;DHT22;59069;52.242;20.900;2024-02-14T02:14:16;3.77;83.52
70676;DHT22;59069;52.242;20.900;2024-02-14T02:16:42;3.73;83.63
70676;DHT22;59069;52.242;20.900;2024-02-14T02:19:08;3.69;83.64
70676;DHT22;59069;52.242;20.900;2024-02-14T02:21:38;3.66;83.71
70676;DHT22;59069;52.242;20.900;2024-02-14T02:24:04;3.62;83.68
70676;DHT22;59069;52.242;20.900;2024-02-14T02:26:30;3.59;83.70
70676;DHT22;59069;52.242;20.900;2024-02-14T02:28:55;3.57;83.78
70676;DHT22;59069;52.242;20.900;2024-02-14T02:31:21;3.53;83.89
70676;DHT22;59069;52.242;20.900;2024-02-14T02:33:46;3.50;83.94
70676;DHT22;59069;52.242;20.900;2024-02-14T02:36:12;3.47;84.15
70676;DHT22;59069;52.242;20.900;2024-02-14T02:38:38;3.46;84.24
70676;DHT22;59069;52.242;20.900;2024-02-14T02:41:04;3.43;84.29
70676;DHT22;59069;52.242;20.900;2024-02-14T02:43:33;3.40;84.39
70676;DHT22;59069;52.242;20.900;2024-02-14T02:45:59;3.39;84.61
70676;DHT22;59069;52.242;20.900;2024-02-14T02:48:24;3.37;84.77
70676;DHT22;59069;52.242;20.900;2024-02-14T02:50:50;3.36;84.84
70676;DHT22;59069;52.242;20.900;2024-02-14T02:53:16;3.39;84.86
70676;DHT22;59069;52.242;20.900;2024-02-14T02:55:42;3.36;84.86
70676;DHT22;59069;52.242;20.900;2024-02-14T02:58:07;3.35;84.87
70676;DHT22;59069;52.242;20.900;2024-02-14T03:00:33;3.33;85.00
70676;DHT22;59069;52.242;20.900;2024-02-14T03:02:59;3.35;85.02
70676;DHT22;59069;52.242;20.900;2024-02-14T03:05:25;3.32;85.11
70676;DHT22;59069;52.242;20.900;2024-02-14T03:07:50;3.33;85.16
70676;DHT22;59069;52.242;20.900;2024-02-14T03:10:18;3.30;85.24
70676;DHT22;59069;52.242;20.900;2024-02-14T03:12:49;3.27;85.24
70676;DHT22;59069;52.242;20.900;2024-02-14T03:15:15;3.26;85.29
70676;DHT22;59069;52.242;20.900;2024-02-14T03:17:40;3.26;85.45
70676;DHT22;59069;52.242;20.900;2024-02-14T03:20:08;3.25;85.55
70676;DHT22;59069;52.242;20.900;2024-02-14T03:22:42;3.23;85.64
70676;DHT22;59069;52.242;20.900;2024-02-14T03:25:12;3.20;85.59
70676;DHT22;59069;52.242;20.900;2024-02-14T03:27:38;3.19;85.69
70676;DHT22;59069;52.242;20.900;2024-02-14T03:30:05;3.19;85.82
70676;DHT22;59069;52.242;20.900;2024-02-14T03:32:31;3.18;85.83
70676;DHT22;59069;52.242;20.900;2024-02-14T03:34:56;3.15;85.95
70676;DHT22;59069;52.242;20.900;2024-02-14T03:37:22;3.15;85.84
70676;DHT22;59069;52.242;20.900;2024-02-14T03:39:47;3.11;86.00
70676;DHT22;59069;52.242;20.900;2024-02-14T03:42:12;3.11;86.00
70676;DHT22;59069;52.242;20.900;2024-02-14T03:44:39;3.08;86.10
70676;DHT22;59069;52.242;20.900;2024-02-14T03:47:04;3.08;86.10
70676;DHT22;59069;52.242;20.900;2024-02-14T03:49:29;3.05;86.17
70676;DHT22;59069;52.242;20.900;2024-02-14T03:51:56;3.03;86.21
70676;DHT22;59069;52.242;20.900;2024-02-14T03:54:21;3.02;86.33
70676;DHT22;59069;52.242;20.900;2024-02-14T03:56:48;3.01;86.39
70676;DHT22;59069;52.242;20.900;2024-02-14T03:59:14;2.98;86.39
70676;DHT22;59069;52.242;20.900;2024-02-14T04:01:44;2.99;86.43
70676;DHT22;59069;52.242;20.900;2024-02-14T04:04:10;2.96;86.48
70676;DHT22;59069;52.242;20.900;2024-02-14T04:06:35;2.95;86.63
70676;DHT22;59069;52.242;20.900;2024-02-14T04:09:00;2.94;86.72
70676;DHT22;59069;52.242;20.900;2024-02-14T04:11:26;2.92;86.69
70676;DHT22;59069;52.242;20.900;2024-02-14T04:13:51;2.88;86.64
70676;DHT22;59069;52.242;20.900;2024-02-14T04:16:20;2.89;86.68
70676;DHT22;59069;52.242;20.900;2024-02-14T04:18:46;2.88;86.85
70676;DHT22;59069;52.242;20.900;2024-02-14T04:21:12;2.89;86.92
70676;DHT22;59069;52.242;20.900;2024-02-14T04:23:37;2.85;86.90
70676;DHT22;59069;52.242;20.900;2024-02-14T04:26:05;2.84;86.97
70676;DHT22;59069;52.242;20.900;2024-02-14T04:28:30;2.82;87.03
70676;DHT22;59069;52.242;20.900;2024-02-14T04:30:56;2.84;87.08
70676;DHT22;59069;52.242;20.900;2024-02-14T04:33:21;2.80;87.15
70676;DHT22;59069;52.242;20.900;2024-02-14T04:35:47;2.81;87.53
70676;DHT22;59069;52.242;20.900;2024-02-14T04:38:12;2.82;87.54
70676;DHT22;59069;52.242;20.900;2024-02-14T04:40:38;2.84;87.49
70676;DHT22;59069;52.242;20.900;2024-02-14T04:43:04;2.81;87.52
70676;DHT22;59069;52.242;20.900;2024-02-14T04:45:30;2.84;87.45
70676;DHT22;59069;52.242;20.900;2024-02-14T04:47:55;2.81;87.49
70676;DHT22;59069;52.242;20.900;2024-02-14T04:50:20;2.87;87.78
70676;DHT22;59069;52.242;20.900;2024-02-14T04:52:46;2.84;87.78
70676;DHT22;59069;52.242;20.900;2024-02-14T04:55:11;2.85;87.70
70676;DHT22;59069;52.242;20.900;2024-02-14T04:57:37;2.88;87.82
70676;DHT22;59069;52.242;20.900;2024-02-14T05:00:04;2.88;87.78
70676;DHT22;59069;52.242;20.900;2024-02-14T05:02:30;2.92;87.99
70676;DHT22;59069;52.242;20.900;2024-02-14T05:04:56;2.89;87.86
70676;DHT22;59069;52.242;20.900;2024-02-14T05:07:22;2.92;87.89
70676;DHT22;59069;52.242;20.900;2024-02-14T05:09:47;2.92;87.77
70676;DHT22;59069;52.242;20.900;2024-02-14T05:12:15;2.89;88.01
70676;DHT22;59069;52.242;20.900;2024-02-14T05:14:40;2.91;87.96
70676;DHT22;59069;52.242;20.900;2024-02-14T05:17:07;2.89;87.87
70676;DHT22;59069;52.242;20.900;2024-02-14T05:19:33;2.89;87.89
70676;DHT22;59069;52.242;20.900;2024-02-14T05:21:58;2.89;87.95
70676;DHT22;59069;52.242;20.900;2024-02-14T05:24:24;2.87;87.94
70676;DHT22;59069;52.242;20.900;2024-02-14T05:26:52;2.87;87.84
70676;DHT22;59069;52.242;20.900;2024-02-14T05:29:18;2.84;87.77
70676;DHT22;59069;52.242;20.900;2024-02-14T05:31:46;2.85;87.94
70676;DHT22;59069;52.242;20.900;2024-02-14T05:34:13;2.82;88.02
70676;DHT22;59069;52.242;20.900;2024-02-14T05:36:38;2.81;87.90
70676;DHT22;59069;52.242;20.900;2024-02-14T05:39:04;2.82;87.77
70676;DHT22;59069;52.242;20.900;2024-02-14T05:41:33;2.81;87.82
70676;DHT22;59069;52.242;20.900;2024-02-14T05:43:59;2.80;87.92
70676;DHT22;59069;52.242;20.900;2024-02-14T05:46:25;2.78;87.98
70676;DHT22;59069;52.242;20.900;2024-02-14T05:48:50;2.77;87.89
70676;DHT22;59069;52.242;20.900;2024-02-14T05:51:17;2.78;87.73
70676;DHT22;59069;52.242;20.900;2024-02-14T05:53:43;2.78;87.72
70676;DHT22;59069;52.242;20.900;2024-02-14T05:56:08;2.75;87.69
70676;DHT22;59069;52.242;20.900;2024-02-14T05:58:33;2.75;87.78
70676;DHT22;59069;52.242;20.900;2024-02-14T06:00:59;2.74;87.95
70676;DHT22;59069;52.242;20.900;2024-02-14T06:03:24;2.72;87.93
70676;DHT22;59069;52.242;20.900;2024-02-14T06:05:50;2.75;87.95
70676;DHT22;59069;52.242;20.900;2024-02-14T06:08:15;2.75;87.99
70676;DHT22;59069;52.242;20.900;2024-02-14T06:10:41;2.75;87.99
70676;DHT22;59069;52.242;20.900;2024-02-14T06:13:06;2.75;88.04
70676;DHT22;59069;52.242;20.900;2024-02-14T06:15:31;2.77;88.06
70676;DHT22;59069;52.242;20.900;2024-02-14T06:17:57;2.80;88.21
70676;DHT22;59069;52.242;20.900;2024-02-14T06:20:23;2.84;88.27
70676;DHT22;59069;52.242;20.900;2024-02-14T06:22:48;2.84;88.23
70676;DHT22;59069;52.242;20.900;2024-02-14T06:25:13;2.88;88.26
70676;DHT22;59069;52.242;20.900;2024-02-14T06:27:39;2.94;88.23
70676;DHT22;59069;52.242;20.900;2024-02-14T06:30:05;2.96;88.16
70676;DHT22;59069;52.242;20.900;2024-02-14T06:32:31;2.99;88.19
70676;DHT22;59069;52.242;20.900;2024-02-14T06:34:56;3.05;88.20
70676;DHT22;59069;52.242;20.900;2024-02-14T06:37:21;3.06;88.25
70676;DHT22;59069;52.242;20.900;2024-02-14T06:39:47;3.12;88.18
70676;DHT22;59069;52.242;20.900;2024-02-14T06:42:14;3.18;88.14
70676;DHT22;59069;52.242;20.900;2024-02-14T06:44:40;3.22;87.97
70676;DHT22;59069;52.242;20.900;2024-02-14T06:47:05;3.26;87.86
70676;DHT22;59069;52.242;20.900;2024-02-14T06:49:31;3.30;87.79
70676;DHT22;59069;52.242;20.900;2024-02-14T06:51:56;3.36;87.76
70676;DHT22;59069;52.242;20.900;2024-02-14T06:54:22;3.40;87.64
70676;DHT22;59069;52.242;20.900;2024-02-14T06:56:47;3.47;87.59
70676;DHT22;59069;52.242;20.900;2024-02-14T06:59:13;3.52;87.49
70676;DHT22;59069;52.242;20.900;2024-02-14T07:01:39;3.56;87.40
70676;DHT22;59069;52.242;20.900;2024-02-14T07:04:04;3.67;87.65
70676;DHT22;59069;52.242;20.900;2024-02-14T07:06:30;3.76;87.37
70676;DHT22;59069;52.242;20.900;2024-02-14T07:08:55;3.80;87.07
70676;DHT22;59069;52.242;20.900;2024-02-14T07:11:21;3.84;86.75
70676;DHT22;59069;52.242;20.900;2024-02-14T07:13:46;3.90;86.50
70676;DHT22;59069;52.242;20.900;2024-02-14T07:16:11;3.94;86.43
70676;DHT22;59069;52.242;20.900;2024-02-14T07:18:37;3.97;86.33
70676;DHT22;59069;52.242;20.900;2024-02-14T07:21:02;3.99;86.11
70676;DHT22;59069;52.242;20.900;2024-02-14T07:23:29;4.05;86.13
70676;DHT22;59069;52.242;20.900;2024-02-14T07:25:54;4.09;86.03
70676;DHT22;59069;52.242;20.900;2024-02-14T07:28:20;4.14;85.84
70676;DHT22;59069;52.242;20.900;2024-02-14T07:30:45;4.21;85.75
70676;DHT22;59069;52.242;20.900;2024-02-14T07:33:10;4.28;85.60
70676;DHT22;59069;52.242;20.900;2024-02-14T07:35:36;4.34;85.47
70676;DHT22;59069;52.242;20.900;2024-02-14T07:38:02;4.39;85.37
70676;DHT22;59069;52.242;20.900;2024-02-14T07:40:27;4.60;85.95
70676;DHT22;59069;52.242;20.900;2024-02-14T07:42:56;4.77;85.14
70676;DHT22;59069;52.242;20.900;2024-02-14T07:45:21;4.91;84.97
70676;DHT22;59069;52.242;20.900;2024-02-14T07:47:49;5.00;83.90
70676;DHT22;59069;52.242;20.900;2024-02-14T07:50:14;5.01;83.07
70676;DHT22;59069;52.242;20.900;2024-02-14T07:52:43;5.01;82.60
70676;DHT22;59069;52.242;20.900;2024-02-14T07:55:09;5.00;82.52
70676;DHT22;59069;52.242;20.900;2024-02-14T07:57:38;5.03;82.69
70676;DHT22;59069;52.242;20.900;2024-02-14T08:00:05;5.08;82.54
70676;DHT22;59069;52.242;20.900;2024-02-14T08:02:30;5.13;82.29
70676;DHT22;59069;52.242;20.900;2024-02-14T08:04:56;5.17;82.06
70676;DHT22;59069;52.242;20.900;2024-02-14T08:07:21;5.26;81.90
70676;DHT22;59069;52.242;20.900;2024-02-14T08:09:47;5.32;81.62
70676;DHT22;59069;52.242;20.900;2024-02-14T08:12:12;5.37;81.35
70676;DHT22;59069;52.242;20.900;2024-02-14T08:14:38;5.45;81.15
70676;DHT22;59069;52.242;20.900;2024-02-14T08:17:03;5.51;80.79
70676;DHT22;59069;52.242;20.900;2024-02-14T08:19:29;5.58;80.55
70676;DHT22;59069;52.242;20.900;2024-02-14T08:21:54;5.63;80.50
70676;DHT22;59069;52.242;20.900;2024-02-14T08:24:25;5.71;80.44
70676;DHT22;59069;52.242;20.900;2024-02-14T08:26:51;5.82;80.26
70676;DHT22;59069;52.242;20.900;2024-02-14T08:29:16;5.92;79.81
70676;DHT22;59069;52.242;20.900;2024-02-14T08:31:41;5.99;79.65
70676;DHT22;59069;52.242;20.900;2024-02-14T08:34:07;6.12;79.61
70676;DHT22;59069;52.242;20.900;2024-02-14T08:36:35;6.20;79.24
70676;DHT22;59069;52.242;20.900;2024-02-14T08:39:08;6.33;78.78
70676;DHT22;59069;52.242;20.900;2024-02-14T08:41:38;6.47;78.51
70676;DHT22;59069;52.242;20.900;2024-02-14T08:44:04;6.58;77.99
70676;DHT22;59069;52.242;20.900;2024-02-14T08:46:30;6.67;77.34
70676;DHT22;59069;52.242;20.900;2024-02-14T08:48:56;6.78;76.84
70676;DHT22;59069;52.242;20.900;2024-02-14T08:51:21;6.98;76.48
70676;DHT22;59069;52.242;20.900;2024-02-14T08:53:47;7.25;76.40
70676;DHT22;59069;52.242;20.900;2024-02-14T08:56:13;7.64;80.99
70676;DHT22;59069;52.242;20.900;2024-02-14T08:58:38;8.20;82.54
70676;DHT22;59069;52.242;20.900;2024-02-14T09:01:04;8.65;78.52
70676;DHT22;59069;52.242;20.900;2024-02-14T09:03:29;9.27;81.41
70676;DHT22;59069;52.242;20.900;2024-02-14T09:05:56;9.75;75.30
70676;DHT22;59069;52.242;20.900;2024-02-14T09:08:22;10.13;68.23
70676;DHT22;59069;52.242;20.900;2024-02-14T09:10:49;10.33;66.78
70676;DHT22;59069;52.242;20.900;2024-02-14T09:13:15;10.64;72.13
70676;DHT22;59069;52.242;20.900;2024-02-14T09:15:40;11.09;70.74
70676;DHT22;59069;52.242;20.900;2024-02-14T09:18:06;11.38;63.81
70676;DHT22;59069;52.242;20.900;2024-02-14T09:20:31;11.56;59.30
70676;DHT22;59069;52.242;20.900;2024-02-14T09:22:56;11.74;58.01
70676;DHT22;59069;52.242;20.900;2024-02-14T09:25:24;11.80;55.36
70676;DHT22;59069;52.242;20.900;2024-02-14T09:27:50;11.93;59.43
70676;DHT22;59069;52.242;20.900;2024-02-14T09:30:16;11.98;54.28
70676;DHT22;59069;52.242;20.900;2024-02-14T09:32:43;11.90;53.01
70676;DHT22;59069;52.242;20.900;2024-02-14T09:35:09;11.82;55.90
70676;DHT22;59069;52.242;20.900;2024-02-14T09:37:34;11.82;57.09
70676;DHT22;59069;52.242;20.900;2024-02-14T09:39:59;11.90;53.40
70676;DHT22;59069;52.242;20.900;2024-02-14T09:42:37;12.24;63.57
70676;DHT22;59069;52.242;20.900;2024-02-14T09:45:05;12.56;57.16
70676;DHT22;59069;52.242;20.900;2024-02-14T09:47:31;12.83;53.14
70676;DHT22;59069;52.242;20.900;2024-02-14T09:50:00;13.20;54.83
70676;DHT22;59069;52.242;20.900;2024-02-14T09:52:26;13.60;54.85
70676;DHT22;59069;52.242;20.900;2024-02-14T09:54:52;14.05;55.46
70676;DHT22;59069;52.242;20.900;2024-02-14T09:57:18;14.40;51.65
70676;DHT22;59069;52.242;20.900;2024-02-14T09:59:45;14.70;47.70
70676;DHT22;59069;52.242;20.900;2024-02-14T10:02:10;15.07;48.62
70676;DHT22;59069;52.242;20.900;2024-02-14T10:04:36;15.55;48.21
70676;DHT22;59069;52.242;20.900;2024-02-14T10:07:04;15.88;48.61
70676;DHT22;59069;52.242;20.900;2024-02-14T10:09:30;16.30;46.67
70676;DHT22;59069;52.242;20.900;2024-02-14T10:11:56;16.06;36.68
70676;DHT22;59069;52.242;20.900;2024-02-14T10:14:23;15.52;36.92
70676;DHT22;59069;52.242;20.900;2024-02-14T10:16:49;15.07;41.36
70676;DHT22;59069;52.242;20.900;2024-02-14T10:19:20;14.97;45.31
70676;DHT22;59069;52.242;20.900;2024-02-14T10:21:56;14.56;42.42
70676;DHT22;59069;52.242;20.900;2024-02-14T10:24:27;14.39;50.13
70676;DHT22;59069;52.242;20.900;2024-02-14T10:26:53;14.18;40.06
70676;DHT22;59069;52.242;20.900;2024-02-14T10:29:22;13.67;40.78
70676;DHT22;59069;52.242;20.900;2024-02-14T10:31:48;13.16;43.44
70676;DHT22;59069;52.242;20.900;2024-02-14T10:34:13;13.42;52.22
70676;DHT22;59069;52.242;20.900;2024-02-14T10:36:41;13.12;44.14
70676;DHT22;59069;52.242;20.900;2024-02-14T10:39:09;13.13;55.05
70676;DHT22;59069;52.242;20.900;2024-02-14T10:41:36;13.10;45.89
70676;DHT22;59069;52.242;20.900;2024-02-14T10:44:05;12.95;44.96
70676;DHT22;59069;52.242;20.900;2024-02-14T10:46:36;12.92;47.93
70676;DHT22;59069;52.242;20.900;2024-02-14T10:49:04;12.78;48.01
70676;DHT22;59069;52.242;20.900;2024-02-14T10:51:34;12.69;46.95
70676;DHT22;59069;52.242;20.900;2024-02-14T10:54:05;12.81;49.19
70676;DHT22;59069;52.242;20.900;2024-02-14T10:56:32;12.95;48.90
70676;DHT22;59069;52.242;20.900;2024-02-14T10:58:58;13.28;50.84
70676;DHT22;59069;52.242;20.900;2024-02-14T11:01:27;13.60;46.32
70676;DHT22;59069;52.242;20.900;2024-02-14T11:03:56;13.23;38.66
70676;DHT22;59069;52.242;20.900;2024-02-14T11:06:23;12.78;40.28
70676;DHT22;59069;52.242;20.900;2024-02-14T11:09:00;12.25;42.35
70676;DHT22;59069;52.242;20.900;2024-02-14T11:11:29;11.74;43.82
70676;DHT22;59069;52.242;20.900;2024-02-14T11:13:57;11.32;45.53
70676;DHT22;59069;52.242;20.900;2024-02-14T11:16:28;11.05;46.57
70676;DHT22;59069;52.242;20.900;2024-02-14T11:19:11;10.75;47.47
70676;DHT22;59069;52.242;20.900;2024-02-14T11:21:40;10.60;47.77
70676;DHT22;59069;52.242;20.900;2024-02-14T11:24:07;10.43;47.92
70676;DHT22;59069;52.242;20.900;2024-02-14T11:26:55;10.32;48.59
70676;DHT22;59069;52.242;20.900;2024-02-14T11:29:28;10.23;49.05
70676;DHT22;59069;52.242;20.900;2024-02-14T11:32:00;10.21;49.06
70676;DHT22;59069;52.242;20.900;2024-02-14T11:34:30;10.16;49.30
70676;DHT22;59069;52.242;20.900;2024-02-14T11:36:58;10.10;49.52
70676;DHT22;59069;52.242;20.900;2024-02-14T11:39:25;10.10;49.54
70676;DHT22;59069;52.242;20.900;2024-02-14T11:41:50;10.08;49.44
70676;DHT22;59069;52.242;20.900;2024-02-14T11:44:16;10.06;49.51
70676;DHT22;59069;52.242;20.900;2024-02-14T11:46:41;10.05;49.73
70676;DHT22;59069;52.242;20.900;2024-02-14T11:49:07;10.03;49.63
70676;DHT22;59069;52.242;20.900;2024-02-14T11:51:34;10.02;49.71
70676;DHT22;59069;52.242;20.900;2024-02-14T11:54:05;9.99;49.36
70676;DHT22;59069;52.242;20.900;2024-02-14T11:56:36;9.98;49.40
70676;DHT22;59069;52.242;20.900;2024-02-14T11:59:03;10.00;49.55
70676;DHT22;59069;52.242;20.900;2024-02-14T12:01:36;10.00;49.60
70676;DHT22;59069;52.242;20.900;2024-02-14T12:04:06;9.99;49.24
70676;DHT22;59069;52.242;20.900;2024-02-14T12:06:34;9.95;49.09
70676;DHT22;59069;52.242;20.900;2024-02-14T12:09:03;9.90;48.73
70676;DHT22;59069;52.242;20.900;2024-02-14T12:11:34;9.85;48.90
70676;DHT22;59069;52.242;20.900;2024-02-14T12:14:02;9.81;49.22
70676;DHT22;59069;52.242;20.900;2024-02-14T12:16:29;9.79;49.51
70676;DHT22;59069;52.242;20.900;2024-02-14T12:19:05;9.81;49.80
70676;DHT22;59069;52.242;20.900;2024-02-14T12:21:38;9.78;49.71
70676;DHT22;59069;52.242;20.900;2024-02-14T12:24:06;9.77;49.45
70676;DHT22;59069;52.242;20.900;2024-02-14T12:26:32;9.78;49.38
70676;DHT22;59069;52.242;20.900;2024-02-14T12:29:01;9.79;49.65
70676;DHT22;59069;52.242;20.900;2024-02-14T12:31:27;9.82;49.63
70676;DHT22;59069;52.242;20.900;2024-02-14T12:33:52;9.88;49.55
70676;DHT22;59069;52.242;20.900;2024-02-14T12:36:20;9.86;48.94
70676;DHT22;59069;52.242;20.900;2024-02-14T12:38:45;9.89;48.69
70676;DHT22;59069;52.242;20.900;2024-02-14T12:41:11;9.88;48.75
70676;DHT22;59069;52.242;20.900;2024-02-14T12:43:36;9.86;48.91
70676;DHT22;59069;52.242;20.900;2024-02-14T12:46:02;9.93;49.12
70676;DHT22;59069;52.242;20.900;2024-02-14T12:48:29;9.96;49.17
70676;DHT22;59069;52.242;20.900;2024-02-14T12:50:55;10.00;49.02
70676;DHT22;59069;52.242;20.900;2024-02-14T12:53:23;10.03;49.00
70676;DHT22;59069;52.242;20.900;2024-02-14T12:55:48;10.05;49.18
70676;DHT22;59069;52.242;20.900;2024-02-14T12:58:14;10.09;49.27
70676;DHT22;59069;52.242;20.900;2024-02-14T13:00:40;10.12;48.98
70676;DHT22;59069;52.242;20.900;2024-02-14T13:03:05;10.17;48.84
70676;DHT22;59069;52.242;20.900;2024-02-14T13:05:30;10.14;48.67
70676;DHT22;59069;52.242;20.900;2024-02-14T13:07:57;10.13;48.76
70676;DHT22;59069;52.242;20.900;2024-02-14T13:10:22;10.12;48.40
70676;DHT22;59069;52.242;20.900;2024-02-14T13:12:48;10.12;48.41
70676;DHT22;59069;52.242;20.900;2024-02-14T13:15:14;10.12;48.24
70676;DHT22;59069;52.242;20.900;2024-02-14T13:17:41;10.17;48.03
70676;DHT22;59069;52.242;20.900;2024-02-14T13:20:06;10.12;48.03
70676;DHT22;59069;52.242;20.900;2024-02-14T13:22:32;10.06;47.97
70676;DHT22;59069;52.242;20.900;2024-02-14T13:24:58;10.06;47.93
70676;DHT22;59069;52.242;20.900;2024-02-14T13:27:25;10.03;48.06
70676;DHT22;59069;52.242;20.900;2024-02-14T13:29:51;10.05;48.07
70676;DHT22;59069;52.242;20.900;2024-02-14T13:32:16;10.02;48.31
70676;DHT22;59069;52.242;20.900;2024-02-14T13:34:42;10.03;48.57
70676;DHT22;59069;52.242;20.900;2024-02-14T13:37:09;9.99;48.51
70676;DHT22;59069;52.242;20.900;2024-02-14T13:39:34;9.96;48.32
70676;DHT22;59069;52.242;20.900;2024-02-14T13:42:02;9.95;48.58
70676;DHT22;59069;52.242;20.900;2024-02-14T13:44:28;9.95;48.30
70676;DHT22;59069;52.242;20.900;2024-02-14T13:46:55;9.86;48.29
70676;DHT22;59069;52.242;20.900;2024-02-14T13:49:20;9.82;48.30
70676;DHT22;59069;52.242;20.900;2024-02-14T13:51:49;9.82;48.50
70676;DHT22;59069;52.242;20.900;2024-02-14T13:54:17;9.81;48.53
70676;DHT22;59069;52.242;20.900;2024-02-14T13:56:42;9.79;48.80
70676;DHT22;59069;52.242;20.900;2024-02-14T13:59:08;9.82;48.94
70676;DHT22;59069;52.242;20.900;2024-02-14T14:01:34;9.81;49.06
70676;DHT22;59069;52.242;20.900;2024-02-14T14:03:59;9.85;49.07
70676;DHT22;59069;52.242;20.900;2024-02-14T14:06:25;9.85;49.13
70676;DHT22;59069;52.242;20.900;2024-02-14T14:08:50;9.89;49.07
70676;DHT22;59069;52.242;20.900;2024-02-14T14:11:16;9.88;49.14
70676;DHT22;59069;52.242;20.900;2024-02-14T14:13:42;9.86;49.08
70676;DHT22;59069;52.242;20.900;2024-02-14T14:16:07;9.88;49.22
70676;DHT22;59069;52.242;20.900;2024-02-14T14:18:33;9.89;49.29
70676;DHT22;59069;52.242;20.900;2024-02-14T14:20:58;9.86;49.50
70676;DHT22;59069;52.242;20.900;2024-02-14T14:23:24;9.90;49.59
70676;DHT22;59069;52.242;20.900;2024-02-14T14:25:49;9.86;49.54
70676;DHT22;59069;52.242;20.900;2024-02-14T14:28:15;9.86;49.54
70676;DHT22;59069;52.242;20.900;2024-02-14T14:30:41;9.86;49.84
70676;DHT22;59069;52.242;20.900;2024-02-14T14:33:06;9.95;49.65
70676;DHT22;59069;52.242;20.900;2024-02-14T14:35:33;10.24;50.45
70676;DHT22;59069;52.242;20.900;2024-02-14T14:38:02;10.61;49.95
70676;DHT22;59069;52.242;20.900;2024-02-14T14:40:28;10.68;48.23
70676;DHT22;59069;52.242;20.900;2024-02-14T14:42:54;10.60;47.49
70676;DHT22;59069;52.242;20.900;2024-02-14T14:45:19;10.47;47.54
70676;DHT22;59069;52.242;20.900;2024-02-14T14:47:45;10.30;47.69
70676;DHT22;59069;52.242;20.900;2024-02-14T14:50:10;10.12;48.19
70676;DHT22;59069;52.242;20.900;2024-02-14T14:52:38;10.00;48.61
70676;DHT22;59069;52.242;20.900;2024-02-14T14:55:04;9.86;48.90
70676;DHT22;59069;52.242;20.900;2024-02-14T14:57:30;9.72;49.27
70676;DHT22;59069;52.242;20.900;2024-02-14T14:59:55;9.58;49.73
70676;DHT22;59069;52.242;20.900;2024-02-14T15:02:21;9.48;49.99
70676;DHT22;59069;52.242;20.900;2024-02-14T15:04:50;9.39;50.36
70676;DHT22;59069;52.242;20.900;2024-02-14T15:07:16;9.30;50.56
70676;DHT22;59069;52.242;20.900;2024-02-14T15:09:45;9.20;50.87
70676;DHT22;59069;52.242;20.900;2024-02-14T15:12:10;9.10;51.10
70676;DHT22;59069;52.242;20.900;2024-02-14T15:14:36;9.07;51.31
70676;DHT22;59069;52.242;20.900;2024-02-14T15:17:01;9.00;51.54
70676;DHT22;59069;52.242;20.900;2024-02-14T15:19:26;8.93;51.80
70676;DHT22;59069;52.242;20.900;2024-02-14T15:21:52;8.86;52.03